Anette — A8WY8 — position and weather

sailwx.info

Track history (hours):
 
Tides and Currents Weather Stations Pressure Air Temp Water Temp Dewpoint Dewpoint Depression Visibility Wind Speed Wind Dir Waves Ship Positions

Anette

Last reported at 2015-Aug-03 13:11 UTC. Time now 2015-Aug-04 11:44 UTC.
Position N 42°32' W 067°23'.

Length 180 m; draft 7.7 m.

Type: Cargo ship. MMSI: 636092099.

Date/timePositionNaut miles runAvg speedWind from/ knotsBaromVisibWave heightAir tempDewpointWater temp
2015-Aug-03 13:11N 42°32' W 067°23'1115.2
2015-Aug-03 12:28N 42°38' W 067°36'2115.4
2015-Aug-03 11:05N 42°50' W 067°60'3317.0
2015-Aug-03 09:09N 43°06' W 068°39'1216.5
2015-Aug-03 08:27N 43°11' W 068°54'2815.1
2015-Aug-03 06:33N 43°22' W 069°30'1615.9
2015-Aug-03 05:34N 43°27' W 069°50'  
2015-Jul-31 09:32N 43°56' W 068°48'13 5.5
2015-Jul-31 07:13N 43°49' W 068°33'10412.8
2015-Jul-30 23:04N 42°28' W 067°03'1013.9
2015-Jul-30 22:20N 42°20' W 066°54'1513.2
2015-Jul-30 21:13N 42°06' W 066°46'913.2
2015-Jul-30 20:33N 41°58' W 066°42'  
Track history (hours):
 
Tides and Currents Weather Stations Pressure Air Temp Water Temp Dewpoint Dewpoint Depression Visibility Wind Speed Wind Dir Waves Ship Positions

Anette

Last reported at 2015-Aug-03 13:11 UTC. Time now 2015-Aug-04 11:44 UTC.
Position N 42°32' W 067°23'.

Length 180 m; draft 7.7 m.

Type: Cargo ship. MMSI: 636092099.

Date/timePositionNaut miles runAvg speedWind from/ knotsBaromVisibWave heightAir tempDewpointWater temp
2015-Aug-03 13:11N 42°32' W 067°23'1115.2
2015-Aug-03 12:28N 42°38' W 067°36'2115.4
2015-Aug-03 11:05N 42°50' W 067°60'3317.0
2015-Aug-03 09:09N 43°06' W 068°39'1216.5
2015-Aug-03 08:27N 43°11' W 068°54'2815.1
2015-Aug-03 06:33N 43°22' W 069°30'1615.9
2015-Aug-03 05:34N 43°27' W 069°50'  
2015-Jul-31 09:32N 43°56' W 068°48'13 5.5
2015-Jul-31 07:13N 43°49' W 068°33'10412.8
2015-Jul-30 23:04N 42°28' W 067°03'1013.9
2015-Jul-30 22:20N 42°20' W 066°54'1513.2
2015-Jul-30 21:13N 42°06' W 066°46'913.2
2015-Jul-30 20:33N 41°58' W 066°42'  

Dump ship's entire track history